sensor_id;sensor_type;location;lat;lon;timestamp;pressure;altitude;pressure_sealevel;temperature;humidity
24336;BME280;33098;52.400;16.880;2023-04-08T00:00:58;101145.10;;;7.93;99.51
24336;BME280;33098;52.400;16.880;2023-04-08T00:03:25;101143.46;;;7.84;99.21
24336;BME280;33098;52.400;16.880;2023-04-08T00:05:52;101147.91;;;7.78;99.25
24336;BME280;33098;52.400;16.880;2023-04-08T00:08:18;101146.40;;;7.76;99.42
24336;BME280;33098;52.400;16.880;2023-04-08T00:10:45;101146.34;;;7.70;99.37
24336;BME280;33098;52.400;16.880;2023-04-08T00:13:12;101150.82;;;7.69;99.60
24336;BME280;33098;52.400;16.880;2023-04-08T00:15:40;101154.20;;;7.72;99.66
24336;BME280;33098;52.400;16.880;2023-04-08T00:18:07;101156.44;;;7.71;99.70
24336;BME280;33098;52.400;16.880;2023-04-08T00:20:34;101161.37;;;7.67;99.68
24336;BME280;33098;52.400;16.880;2023-04-08T00:23:01;101164.16;;;7.68;99.87
24336;BME280;33098;52.400;16.880;2023-04-08T00:25:28;101175.95;;;7.65;99.85
24336;BME280;33098;52.400;16.880;2023-04-08T00:27:54;101186.77;;;7.65;99.89
24336;BME280;33098;52.400;16.880;2023-04-08T00:30:21;101188.35;;;7.68;100.00
24336;BME280;33098;52.400;16.880;2023-04-08T00:32:48;101175.59;;;7.68;100.00
24336;BME280;33098;52.400;16.880;2023-04-08T00:35:16;101174.98;;;7.67;100.00
24336;BME280;33098;52.400;16.880;2023-04-08T00:37:43;101188.23;;;7.67;100.00
24336;BME280;33098;52.400;16.880;2023-04-08T00:40:09;101185.81;;;7.73;100.00
24336;BME280;33098;52.400;16.880;2023-04-08T00:42:37;101186.25;;;7.81;100.00
24336;BME280;33098;52.400;16.880;2023-04-08T00:45:05;101182.45;;;7.82;100.00
24336;BME280;33098;52.400;16.880;2023-04-08T00:47:31;101189.43;;;7.84;100.00
24336;BME280;33098;52.400;16.880;2023-04-08T00:50:01;101189.30;;;7.80;100.00
24336;BME280;33098;52.400;16.880;2023-04-08T00:52:27;101191.67;;;7.82;100.00
24336;BME280;33098;52.400;16.880;2023-04-08T00:54:54;101193.06;;;7.79;100.00
24336;BME280;33098;52.400;16.880;2023-04-08T00:57:21;101189.38;;;7.75;99.96
24336;BME280;33098;52.400;16.880;2023-04-08T00:59:48;101187.54;;;7.70;99.72
24336;BME280;33098;52.400;16.880;2023-04-08T01:02:30;101189.45;;;7.64;99.68
24336;BME280;33098;52.400;16.880;2023-04-08T01:05:20;101192.83;;;7.57;99.46
24336;BME280;33098;52.400;16.880;2023-04-08T01:07:51;101201.41;;;7.55;99.55
24336;BME280;33098;52.400;16.880;2023-04-08T01:10:21;101200.09;;;7.53;99.51
24336;BME280;33098;52.400;16.880;2023-04-08T01:12:56;101199.09;;;7.46;99.22
24336;BME280;33098;52.400;16.880;2023-04-08T01:15:28;101204.76;;;7.42;99.27
24336;BME280;33098;52.400;16.880;2023-04-08T01:17:56;101207.58;;;7.39;99.21
24336;BME280;33098;52.400;16.880;2023-04-08T01:20:25;101210.42;;;7.35;99.18
24336;BME280;33098;52.400;16.880;2023-04-08T01:23:09;101211.02;;;7.27;99.06
24336;BME280;33098;52.400;16.880;2023-04-08T01:25:38;101210.73;;;7.26;99.22
24336;BME280;33098;52.400;16.880;2023-04-08T01:28:14;101219.19;;;7.19;98.96
24336;BME280;33098;52.400;16.880;2023-04-08T01:30:43;101219.13;;;7.11;98.95
24336;BME280;33098;52.400;16.880;2023-04-08T01:33:12;101219.06;;;7.08;99.18
24336;BME280;33098;52.400;16.880;2023-04-08T01:35:39;101223.50;;;7.03;99.11
24336;BME280;33098;52.400;16.880;2023-04-08T01:38:09;101220.90;;;7.03;99.33
24336;BME280;33098;52.400;16.880;2023-04-08T01:40:38;101222.13;;;7.07;99.57
24336;BME280;33098;52.400;16.880;2023-04-08T01:43:09;101223.41;;;7.06;99.56
24336;BME280;33098;52.400;16.880;2023-04-08T01:45:38;101225.20;;;7.06;99.57
24336;BME280;33098;52.400;16.880;2023-04-08T01:48:05;101229.45;;;7.05;99.64
24336;BME280;33098;52.400;16.880;2023-04-08T01:50:33;101232.38;;;6.99;99.48
24336;BME280;33098;52.400;16.880;2023-04-08T01:53:01;101233.70;;;6.94;99.24
24336;BME280;33098;52.400;16.880;2023-04-08T01:55:31;101237.99;;;6.90;99.26
24336;BME280;33098;52.400;16.880;2023-04-08T01:57:59;101237.23;;;6.87;99.18
24336;BME280;33098;52.400;16.880;2023-04-08T02:00:29;101240.75;;;6.84;99.14
24336;BME280;33098;52.400;16.880;2023-04-08T02:02:57;101245.09;;;6.82;99.19
24336;BME280;33098;52.400;16.880;2023-04-08T02:05:25;101245.81;;;6.78;99.07
24336;BME280;33098;52.400;16.880;2023-04-08T02:07:52;101251.66;;;6.78;99.18
24336;BME280;33098;52.400;16.880;2023-04-08T02:10:20;101253.79;;;6.74;99.17
24336;BME280;33098;52.400;16.880;2023-04-08T02:12:48;101256.65;;;6.62;98.73
24336;BME280;33098;52.400;16.880;2023-04-08T02:15:18;101261.80;;;6.57;98.84
24336;BME280;33098;52.400;16.880;2023-04-08T02:17:54;101260.58;;;6.47;98.51
24336;BME280;33098;52.400;16.880;2023-04-08T02:20:30;101265.41;;;6.45;98.74
24336;BME280;33098;52.400;16.880;2023-04-08T02:23:08;101267.19;;;6.45;98.89
24336;BME280;33098;52.400;16.880;2023-04-08T02:25:37;101268.48;;;6.44;98.93
24336;BME280;33098;52.400;16.880;2023-04-08T02:28:09;101274.27;;;6.44;99.05
24336;BME280;33098;52.400;16.880;2023-04-08T02:30:40;101275.54;;;6.47;99.20
24336;BME280;33098;52.400;16.880;2023-04-08T02:33:08;101277.80;;;6.44;99.07
24336;BME280;33098;52.400;16.880;2023-04-08T02:35:35;101281.76;;;6.46;99.19
24336;BME280;33098;52.400;16.880;2023-04-08T02:38:02;101286.73;;;6.45;99.18
24336;BME280;33098;52.400;16.880;2023-04-08T02:40:31;101286.25;;;6.44;99.13
24336;BME280;33098;52.400;16.880;2023-04-08T02:43:01;101290.00;;;6.43;99.26
24336;BME280;33098;52.400;16.880;2023-04-08T02:45:35;101294.64;;;6.46;99.37
24336;BME280;33098;52.400;16.880;2023-04-08T02:48:03;101299.61;;;6.45;99.21
24336;BME280;33098;52.400;16.880;2023-04-08T02:50:32;101299.10;;;6.45;99.38
24336;BME280;33098;52.400;16.880;2023-04-08T02:53:02;101308.25;;;6.45;99.35
24336;BME280;33098;52.400;16.880;2023-04-08T02:55:30;101310.31;;;6.50;99.50
24336;BME280;33098;52.400;16.880;2023-04-08T02:57:56;101313.32;;;6.46;99.22
24336;BME280;33098;52.400;16.880;2023-04-08T03:00:23;101320.63;;;6.45;99.04
24336;BME280;33098;52.400;16.880;2023-04-08T03:02:50;101318.73;;;6.48;99.12
24336;BME280;33098;52.400;16.880;2023-04-08T03:05:16;101320.57;;;6.50;99.17
24336;BME280;33098;52.400;16.880;2023-04-08T03:07:43;101328.46;;;6.43;98.81
24336;BME280;33098;52.400;16.880;2023-04-08T03:10:10;101330.26;;;6.38;98.65
24336;BME280;33098;52.400;16.880;2023-04-08T03:12:37;101335.93;;;6.34;98.53
24336;BME280;33098;52.400;16.880;2023-04-08T03:15:04;101340.48;;;6.31;98.39
24336;BME280;33098;52.400;16.880;2023-04-08T03:17:31;101345.35;;;6.32;98.64
24336;BME280;33098;52.400;16.880;2023-04-08T03:20:01;101344.65;;;6.32;98.48
24336;BME280;33098;52.400;16.880;2023-04-08T03:22:30;101347.25;;;6.25;98.20
24336;BME280;33098;52.400;16.880;2023-04-08T03:24:57;101349.93;;;6.21;98.13
24336;BME280;33098;52.400;16.880;2023-04-08T03:27:24;101349.38;;;6.17;98.07
24336;BME280;33098;52.400;16.880;2023-04-08T03:29:51;101349.52;;;6.19;98.13
24336;BME280;33098;52.400;16.880;2023-04-08T03:32:18;101350.95;;;6.14;98.02
24336;BME280;33098;52.400;16.880;2023-04-08T03:34:45;101348.29;;;6.14;98.04
24336;BME280;33098;52.400;16.880;2023-04-08T03:37:12;101352.21;;;6.14;97.98
24336;BME280;33098;52.400;16.880;2023-04-08T03:39:39;101352.95;;;6.09;97.76
24336;BME280;33098;52.400;16.880;2023-04-08T03:42:05;101353.38;;;6.07;97.83
24336;BME280;33098;52.400;16.880;2023-04-08T03:44:32;101356.14;;;6.08;97.95
24336;BME280;33098;52.400;16.880;2023-04-08T03:46:59;101360.00;;;6.13;97.96
24336;BME280;33098;52.400;16.880;2023-04-08T03:49:26;101362.54;;;6.08;97.70
24336;BME280;33098;52.400;16.880;2023-04-08T03:51:52;101359.76;;;6.10;97.82
24336;BME280;33098;52.400;16.880;2023-04-08T03:54:19;101357.34;;;6.13;97.93
24336;BME280;33098;52.400;16.880;2023-04-08T03:56:45;101359.10;;;6.17;97.99
24336;BME280;33098;52.400;16.880;2023-04-08T03:59:12;101363.14;;;6.09;97.63
24336;BME280;33098;52.400;16.880;2023-04-08T04:01:39;101370.08;;;5.99;97.39
24336;BME280;33098;52.400;16.880;2023-04-08T04:04:08;101367.59;;;5.96;97.39
24336;BME280;33098;52.400;16.880;2023-04-08T04:06:35;101366.94;;;5.94;97.38
24336;BME280;33098;52.400;16.880;2023-04-08T04:09:03;101377.17;;;5.90;97.29
24336;BME280;33098;52.400;16.880;2023-04-08T04:11:29;101377.03;;;5.89;97.46
24336;BME280;33098;52.400;16.880;2023-04-08T04:13:56;101379.38;;;5.84;97.32
24336;BME280;33098;52.400;16.880;2023-04-08T04:16:23;101379.59;;;5.75;97.02
24336;BME280;33098;52.400;16.880;2023-04-08T04:18:51;101378.86;;;5.71;97.07
24336;BME280;33098;52.400;16.880;2023-04-08T04:21:18;101378.41;;;5.66;96.95
24336;BME280;33098;52.400;16.880;2023-04-08T04:23:45;101381.64;;;5.64;96.95
24336;BME280;33098;52.400;16.880;2023-04-08T04:26:12;101386.21;;;5.64;97.17
24336;BME280;33098;52.400;16.880;2023-04-08T04:28:39;101387.14;;;5.59;96.90
24336;BME280;33098;52.400;16.880;2023-04-08T04:31:06;101395.83;;;5.53;96.88
24336;BME280;33098;52.400;16.880;2023-04-08T04:33:33;101394.47;;;5.44;96.85
24336;BME280;33098;52.400;16.880;2023-04-08T04:36:00;101397.39;;;5.42;96.88
24336;BME280;33098;52.400;16.880;2023-04-08T04:38:27;101402.18;;;5.36;96.87
24336;BME280;33098;52.400;16.880;2023-04-08T04:40:54;101401.05;;;5.37;97.19
24336;BME280;33098;52.400;16.880;2023-04-08T04:43:20;101406.42;;;5.40;97.38
24336;BME280;33098;52.400;16.880;2023-04-08T04:45:47;101403.73;;;5.46;97.70
24336;BME280;33098;52.400;16.880;2023-04-08T04:48:14;101408.23;;;5.48;97.61
24336;BME280;33098;52.400;16.880;2023-04-08T04:50:41;101411.61;;;5.47;97.66
24336;BME280;33098;52.400;16.880;2023-04-08T04:53:08;101415.05;;;5.39;97.36
24336;BME280;33098;52.400;16.880;2023-04-08T04:55:35;101416.58;;;5.37;97.48
24336;BME280;33098;52.400;16.880;2023-04-08T04:58:01;101422.40;;;5.32;97.25
24336;BME280;33098;52.400;16.880;2023-04-08T05:00:28;101423.77;;;5.25;96.90
24336;BME280;33098;52.400;16.880;2023-04-08T05:02:56;101421.89;;;5.15;96.74
24336;BME280;33098;52.400;16.880;2023-04-08T05:05:22;101428.98;;;5.09;96.57
24336;BME280;33098;52.400;16.880;2023-04-08T05:07:49;101430.71;;;5.10;96.84
24336;BME280;33098;52.400;16.880;2023-04-08T05:10:18;101427.02;;;5.14;97.34
24336;BME280;33098;52.400;16.880;2023-04-08T05:12:45;101429.94;;;5.24;97.77
24336;BME280;33098;52.400;16.880;2023-04-08T05:15:14;101433.83;;;5.33;98.26
24336;BME280;33098;52.400;16.880;2023-04-08T05:17:42;101434.41;;;5.44;98.61
24336;BME280;33098;52.400;16.880;2023-04-08T05:20:09;101438.33;;;5.56;99.00
24336;BME280;33098;52.400;16.880;2023-04-08T05:22:36;101441.17;;;5.68;99.22
24336;BME280;33098;52.400;16.880;2023-04-08T05:25:04;101437.11;;;5.81;99.44
24336;BME280;33098;52.400;16.880;2023-04-08T05:27:31;101439.78;;;5.89;99.49
24336;BME280;33098;52.400;16.880;2023-04-08T05:29:58;101441.67;;;5.98;99.46
24336;BME280;33098;52.400;16.880;2023-04-08T05:32:25;101444.52;;;6.06;99.60
24336;BME280;33098;52.400;16.880;2023-04-08T05:34:51;101448.39;;;6.18;99.71
24336;BME280;33098;52.400;16.880;2023-04-08T05:37:18;101447.91;;;6.26;99.49
24336;BME280;33098;52.400;16.880;2023-04-08T05:39:45;101453.19;;;6.30;99.35
24336;BME280;33098;52.400;16.880;2023-04-08T05:42:12;101451.48;;;6.28;98.98
24336;BME280;33098;52.400;16.880;2023-04-08T05:44:42;101454.33;;;6.32;99.01
24336;BME280;33098;52.400;16.880;2023-04-08T05:47:09;101458.69;;;6.37;98.91
24336;BME280;33098;52.400;16.880;2023-04-08T05:49:38;101461.30;;;6.45;98.95
24336;BME280;33098;52.400;16.880;2023-04-08T05:52:08;101467.39;;;6.51;98.90
24336;BME280;33098;52.400;16.880;2023-04-08T05:54:35;101466.34;;;6.55;98.71
24336;BME280;33098;52.400;16.880;2023-04-08T05:57:02;101471.43;;;6.59;98.55
24336;BME280;33098;52.400;16.880;2023-04-08T05:59:31;101473.83;;;6.65;98.42
24336;BME280;33098;52.400;16.880;2023-04-08T06:01:57;101476.79;;;6.70;98.47
24336;BME280;33098;52.400;16.880;2023-04-08T06:04:24;101479.02;;;6.79;98.51
24336;BME280;33098;52.400;16.880;2023-04-08T06:06:53;101483.06;;;6.86;98.33
24336;BME280;33098;52.400;16.880;2023-04-08T06:09:20;101485.95;;;6.90;98.12
24336;BME280;33098;52.400;16.880;2023-04-08T06:11:46;101488.27;;;6.92;97.91
24336;BME280;33098;52.400;16.880;2023-04-08T06:14:15;101487.70;;;6.93;97.61
24336;BME280;33098;52.400;16.880;2023-04-08T06:16:41;101489.70;;;6.99;97.55
24336;BME280;33098;52.400;16.880;2023-04-08T06:19:08;101492.40;;;7.02;97.21
24336;BME280;33098;52.400;16.880;2023-04-08T06:21:37;101497.88;;;7.06;97.08
24336;BME280;33098;52.400;16.880;2023-04-08T06:24:07;101497.71;;;7.10;96.86
24336;BME280;33098;52.400;16.880;2023-04-08T06:26:33;101510.40;;;7.14;96.61
24336;BME280;33098;52.400;16.880;2023-04-08T06:29:00;101512.85;;;7.18;96.49
24336;BME280;33098;52.400;16.880;2023-04-08T06:31:29;101515.29;;;7.26;96.46
24336;BME280;33098;52.400;16.880;2023-04-08T06:33:56;101520.02;;;7.27;95.99
24336;BME280;33098;52.400;16.880;2023-04-08T06:36:22;101519.65;;;7.27;95.94
24336;BME280;33098;52.400;16.880;2023-04-08T06:38:49;101522.02;;;7.33;95.97
24336;BME280;33098;52.400;16.880;2023-04-08T06:41:16;101525.48;;;7.42;96.15
24336;BME280;33098;52.400;16.880;2023-04-08T06:43:42;101526.71;;;7.49;96.01
24336;BME280;33098;52.400;16.880;2023-04-08T06:46:09;101530.55;;;7.51;95.61
24336;BME280;33098;52.400;16.880;2023-04-08T06:48:36;101535.18;;;7.53;95.50
24336;BME280;33098;52.400;16.880;2023-04-08T06:51:03;101539.01;;;7.59;95.26
24336;BME280;33098;52.400;16.880;2023-04-08T06:53:30;101539.70;;;7.62;94.98
24336;BME280;33098;52.400;16.880;2023-04-08T06:56:01;101542.91;;;7.62;94.56
24336;BME280;33098;52.400;16.880;2023-04-08T06:58:27;101546.89;;;7.63;94.38
24336;BME280;33098;52.400;16.880;2023-04-08T07:00:58;101546.48;;;7.57;93.88
24336;BME280;33098;52.400;16.880;2023-04-08T07:03:26;101549.05;;;7.59;93.93
24336;BME280;33098;52.400;16.880;2023-04-08T07:05:55;101548.95;;;7.64;94.01
24336;BME280;33098;52.400;16.880;2023-04-08T07:08:22;101552.41;;;7.74;94.03
24336;BME280;33098;52.400;16.880;2023-04-08T07:10:51;101559.17;;;7.83;94.05
24336;BME280;33098;52.400;16.880;2023-04-08T07:13:18;101565.02;;;7.87;93.80
24336;BME280;33098;52.400;16.880;2023-04-08T07:15:44;101559.73;;;7.87;93.55
24336;BME280;33098;52.400;16.880;2023-04-08T07:18:11;101562.42;;;7.89;93.23
24336;BME280;33098;52.400;16.880;2023-04-08T07:20:39;101567.23;;;7.92;93.12
24336;BME280;33098;52.400;16.880;2023-04-08T07:23:08;101568.84;;;7.95;92.86
24336;BME280;33098;52.400;16.880;2023-04-08T07:25:34;101569.14;;;7.93;92.36
24336;BME280;33098;52.400;16.880;2023-04-08T07:28:01;101577.15;;;7.95;92.22
24336;BME280;33098;52.400;16.880;2023-04-08T07:30:28;101578.06;;;7.98;91.88
24336;BME280;33098;52.400;16.880;2023-04-08T07:32:55;101583.65;;;7.96;91.57
24336;BME280;33098;52.400;16.880;2023-04-08T07:35:25;101581.95;;;7.98;91.40
24336;BME280;33098;52.400;16.880;2023-04-08T07:37:52;101584.39;;;7.99;91.11
24336;BME280;33098;52.400;16.880;2023-04-08T07:40:19;101585.27;;;7.92;90.33
24336;BME280;33098;52.400;16.880;2023-04-08T07:42:48;101587.27;;;7.87;90.25
24336;BME280;33098;52.400;16.880;2023-04-08T07:45:15;101587.12;;;7.90;90.28
24336;BME280;33098;52.400;16.880;2023-04-08T07:47:43;101592.40;;;7.94;90.11
24336;BME280;33098;52.400;16.880;2023-04-08T07:50:10;101596.23;;;7.95;90.00
24336;BME280;33098;52.400;16.880;2023-04-08T07:52:37;101591.48;;;7.95;89.72
24336;BME280;33098;52.400;16.880;2023-04-08T07:55:04;101594.42;;;7.99;89.84
24336;BME280;33098;52.400;16.880;2023-04-08T07:57:31;101594.05;;;8.08;89.86
24336;BME280;33098;52.400;16.880;2023-04-08T07:59:58;101597.95;;;8.15;89.70
24336;BME280;33098;52.400;16.880;2023-04-08T08:02:25;101605.06;;;8.17;89.41
24336;BME280;33098;52.400;16.880;2023-04-08T08:04:52;101605.70;;;8.15;89.13
24336;BME280;33098;52.400;16.880;2023-04-08T08:07:21;101614.20;;;8.11;88.71
24336;BME280;33098;52.400;16.880;2023-04-08T08:09:50;101611.73;;;8.18;88.89
24336;BME280;33098;52.400;16.880;2023-04-08T08:12:17;101611.39;;;8.28;89.15
24336;BME280;33098;52.400;16.880;2023-04-08T08:14:46;101617.78;;;8.35;89.03
24336;BME280;33098;52.400;16.880;2023-04-08T08:17:13;101616.55;;;8.39;88.77
24336;BME280;33098;52.400;16.880;2023-04-08T08:19:42;101619.55;;;8.46;88.76
24336;BME280;33098;52.400;16.880;2023-04-08T08:22:10;101623.00;;;8.55;88.66
24336;BME280;33098;52.400;16.880;2023-04-08T08:24:44;101625.73;;;8.60;88.35
24336;BME280;33098;52.400;16.880;2023-04-08T08:27:11;101632.02;;;8.65;88.01
24336;BME280;33098;52.400;16.880;2023-04-08T08:29:38;101634.70;;;8.69;87.72
24336;BME280;33098;52.400;16.880;2023-04-08T08:32:05;101633.25;;;8.73;87.45
24336;BME280;33098;52.400;16.880;2023-04-08T08:34:32;101634.90;;;8.75;87.08
24336;BME280;33098;52.400;16.880;2023-04-08T08:37:01;101636.34;;;8.75;86.73
24336;BME280;33098;52.400;16.880;2023-04-08T08:39:28;101639.87;;;8.71;86.28
24336;BME280;33098;52.400;16.880;2023-04-08T08:41:54;101640.37;;;8.76;86.32
24336;BME280;33098;52.400;16.880;2023-04-08T08:44:23;101639.13;;;8.79;86.11
24336;BME280;33098;52.400;16.880;2023-04-08T08:46:50;101639.15;;;8.75;85.61
24336;BME280;33098;52.400;16.880;2023-04-08T08:49:17;101639.55;;;8.74;85.46
24336;BME280;33098;52.400;16.880;2023-04-08T08:51:45;101641.33;;;8.74;85.44
24336;BME280;33098;52.400;16.880;2023-04-08T08:54:14;101641.18;;;8.83;85.49
24336;BME280;33098;52.400;16.880;2023-04-08T08:56:40;101639.27;;;8.86;85.10
24336;BME280;33098;52.400;16.880;2023-04-08T08:59:08;101638.39;;;8.90;85.05
24336;BME280;33098;52.400;16.880;2023-04-08T09:01:37;101637.86;;;8.96;84.83
24336;BME280;33098;52.400;16.880;2023-04-08T09:04:14;101640.88;;;9.07;84.99
24336;BME280;33098;52.400;16.880;2023-04-08T09:06:44;101643.56;;;9.16;84.85
24336;BME280;33098;52.400;16.880;2023-04-08T09:09:13;101650.41;;;9.23;84.84
24336;BME280;33098;52.400;16.880;2023-04-08T09:11:42;101651.90;;;9.29;84.52
24336;BME280;33098;52.400;16.880;2023-04-08T09:14:22;101654.25;;;9.28;83.94
24336;BME280;33098;52.400;16.880;2023-04-08T09:16:50;101653.81;;;9.29;83.66
24336;BME280;33098;52.400;16.880;2023-04-08T09:19:18;101656.36;;;9.35;83.68
24336;BME280;33098;52.400;16.880;2023-04-08T09:21:44;101658.11;;;9.42;83.61
24336;BME280;33098;52.400;16.880;2023-04-08T09:24:29;101658.44;;;9.49;83.55
24336;BME280;33098;52.400;16.880;2023-04-08T09:26:58;101658.30;;;9.55;83.35
24336;BME280;33098;52.400;16.880;2023-04-08T09:29:28;101653.23;;;9.63;83.35
24336;BME280;33098;52.400;16.880;2023-04-08T09:31:58;101654.30;;;9.73;83.19
24336;BME280;33098;52.400;16.880;2023-04-08T09:34:27;101656.67;;;9.81;83.17
24336;BME280;33098;52.400;16.880;2023-04-08T09:36:54;101660.39;;;9.88;82.94
24336;BME280;33098;52.400;16.880;2023-04-08T09:39:21;101662.02;;;9.90;82.57
24336;BME280;33098;52.400;16.880;2023-04-08T09:41:49;101657.62;;;9.93;82.60
24336;BME280;33098;52.400;16.880;2023-04-08T09:44:19;101659.77;;;9.95;82.18
24336;BME280;33098;52.400;16.880;2023-04-08T09:49:46;101666.63;;;10.15;81.99
24336;BME280;33098;52.400;16.880;2023-04-08T09:55:26;101668.82;;;10.29;81.49
24336;BME280;33098;52.400;16.880;2023-04-08T09:57:58;101669.66;;;10.30;81.39
24336;BME280;33098;52.400;16.880;2023-04-08T10:00:33;101667.04;;;10.36;81.33
24336;BME280;33098;52.400;16.880;2023-04-08T10:03:17;101669.28;;;10.47;81.43
24336;BME280;33098;52.400;16.880;2023-04-08T10:05:49;101656.71;;;10.61;81.22
24336;BME280;33098;52.400;16.880;2023-04-08T10:08:18;101657.37;;;10.68;80.77
24336;BME280;33098;52.400;16.880;2023-04-08T10:10:46;101658.56;;;10.87;80.90
24336;BME280;33098;52.400;16.880;2023-04-08T10:13:13;101658.79;;;11.04;80.86
24336;BME280;33098;52.400;16.880;2023-04-08T10:15:40;101657.77;;;11.12;79.99
24336;BME280;33098;52.400;16.880;2023-04-08T10:23:03;101667.78;;;11.22;79.10
24336;BME280;33098;52.400;16.880;2023-04-08T10:25:30;101663.58;;;11.42;79.15
24336;BME280;33098;52.400;16.880;2023-04-08T10:30:53;101664.66;;;11.75;78.48
24336;BME280;33098;52.400;16.880;2023-04-08T10:33:23;101663.56;;;11.86;77.95
24336;BME280;33098;52.400;16.880;2023-04-08T10:38:38;101672.08;;;11.97;77.08
24336;BME280;33098;52.400;16.880;2023-04-08T10:41:04;101669.62;;;11.96;76.98
24336;BME280;33098;52.400;16.880;2023-04-08T10:43:35;101667.02;;;11.94;76.55
24336;BME280;33098;52.400;16.880;2023-04-08T10:46:05;101666.41;;;11.92;76.34
24336;BME280;33098;52.400;16.880;2023-04-08T10:48:32;101667.48;;;11.95;75.98
24336;BME280;33098;52.400;16.880;2023-04-08T10:51:04;101663.23;;;11.95;75.43
24336;BME280;33098;52.400;16.880;2023-04-08T10:56:10;101657.95;;;12.05;75.52
24336;BME280;33098;52.400;16.880;2023-04-08T10:58:50;101659.17;;;12.27;75.39
24336;BME280;33098;52.400;16.880;2023-04-08T11:01:17;101660.34;;;12.39;74.07
24336;BME280;33098;52.400;16.880;2023-04-08T11:03:44;101662.32;;;12.39;72.90
24336;BME280;33098;52.400;16.880;2023-04-08T11:06:11;101659.30;;;12.44;72.81
24336;BME280;33098;52.400;16.880;2023-04-08T11:08:38;101663.98;;;12.48;72.52
24336;BME280;33098;52.400;16.880;2023-04-08T11:11:06;101668.73;;;12.49;72.14
24336;BME280;33098;52.400;16.880;2023-04-08T11:13:41;101666.84;;;12.41;71.51
24336;BME280;33098;52.400;16.880;2023-04-08T11:16:11;101661.92;;;12.29;70.85
24336;BME280;33098;52.400;16.880;2023-04-08T11:18:39;101660.88;;;12.18;70.95
24336;BME280;33098;52.400;16.880;2023-04-08T11:21:10;101664.39;;;12.21;71.12
24336;BME280;33098;52.400;16.880;2023-04-08T11:23:37;101664.38;;;12.26;71.01
24336;BME280;33098;52.400;16.880;2023-04-08T11:26:04;101665.61;;;12.32;70.99
24336;BME280;33098;52.400;16.880;2023-04-08T11:28:31;101663.55;;;12.39;70.97
24336;BME280;33098;52.400;16.880;2023-04-08T11:30:58;101666.61;;;12.47;70.70
24336;BME280;33098;52.400;16.880;2023-04-08T11:33:25;101665.96;;;12.62;70.78
24336;BME280;33098;52.400;16.880;2023-04-08T11:35:55;101666.05;;;12.79;70.38
24336;BME280;33098;52.400;16.880;2023-04-08T11:38:23;101668.55;;;12.91;69.91
24336;BME280;33098;52.400;16.880;2023-04-08T11:40:58;101671.59;;;13.07;69.70
24336;BME280;33098;52.400;16.880;2023-04-08T11:43:25;101669.70;;;13.24;69.19
24336;BME280;33098;52.400;16.880;2023-04-08T11:45:54;101667.87;;;13.43;68.66
24336;BME280;33098;52.400;16.880;2023-04-08T11:48:24;101665.80;;;13.42;67.81
24336;BME280;33098;52.400;16.880;2023-04-08T11:51:07;101666.60;;;13.43;67.85
24336;BME280;33098;52.400;16.880;2023-04-08T11:53:38;101670.15;;;13.44;67.18
24336;BME280;33098;52.400;16.880;2023-04-08T11:56:18;101671.51;;;13.37;67.34
24336;BME280;33098;52.400;16.880;2023-04-08T11:58:44;101670.27;;;13.34;67.47
24336;BME280;33098;52.400;16.880;2023-04-08T12:01:12;101672.54;;;13.32;67.41
24336;BME280;33098;52.400;16.880;2023-04-08T12:03:52;101669.55;;;13.26;67.20
24336;BME280;33098;52.400;16.880;2023-04-08T12:06:19;101672.42;;;13.21;66.72
24336;BME280;33098;52.400;16.880;2023-04-08T12:08:46;101671.96;;;13.14;66.79
24336;BME280;33098;52.400;16.880;2023-04-08T12:11:15;101674.55;;;13.08;66.79
24336;BME280;33098;52.400;16.880;2023-04-08T12:13:42;101676.65;;;13.01;66.72
24336;BME280;33098;52.400;16.880;2023-04-08T12:16:09;101674.67;;;12.93;66.85
24336;BME280;33098;52.400;16.880;2023-04-08T12:18:35;101675.57;;;12.93;66.84
24336;BME280;33098;52.400;16.880;2023-04-08T12:21:03;101667.55;;;12.93;66.66
24336;BME280;33098;52.400;16.880;2023-04-08T12:23:29;101667.45;;;12.95;66.30
24336;BME280;33098;52.400;16.880;2023-04-08T12:25:57;101663.71;;;12.92;65.77
24336;BME280;33098;52.400;16.880;2023-04-08T12:28:23;101665.05;;;12.88;65.81
24336;BME280;33098;52.400;16.880;2023-04-08T12:30:51;101664.89;;;12.99;66.07
24336;BME280;33098;52.400;16.880;2023-04-08T12:33:18;101663.88;;;13.05;65.59
24336;BME280;33098;52.400;16.880;2023-04-08T12:35:44;101667.44;;;13.26;65.56
24336;BME280;33098;52.400;16.880;2023-04-08T12:38:13;101667.20;;;13.50;65.50
24336;BME280;33098;52.400;16.880;2023-04-08T12:40:42;101661.98;;;13.85;65.51
24336;BME280;33098;52.400;16.880;2023-04-08T12:43:09;101666.26;;;14.31;65.51
24336;BME280;33098;52.400;16.880;2023-04-08T12:45:35;101656.91;;;14.71;65.03
24336;BME280;33098;52.400;16.880;2023-04-08T12:48:03;101658.64;;;15.15;64.37
24336;BME280;33098;52.400;16.880;2023-04-08T12:50:31;101651.10;;;15.52;62.68
24336;BME280;33098;52.400;16.880;2023-04-08T12:52:58;101656.17;;;15.78;62.43
24336;BME280;33098;52.400;16.880;2023-04-08T12:55:25;101654.41;;;16.23;62.58
24336;BME280;33098;52.400;16.880;2023-04-08T12:57:54;101648.66;;;16.62;62.14
24336;BME280;33098;52.400;16.880;2023-04-08T13:00:23;101644.00;;;16.86;61.64
24336;BME280;33098;52.400;16.880;2023-04-08T13:02:49;101645.37;;;17.16;61.06
24336;BME280;33098;52.400;16.880;2023-04-08T13:05:19;101643.70;;;17.29;60.35
24336;BME280;33098;52.400;16.880;2023-04-08T13:07:45;101641.93;;;17.20;59.71
24336;BME280;33098;52.400;16.880;2023-04-08T13:10:12;101647.20;;;17.36;59.66
24336;BME280;33098;52.400;16.880;2023-04-08T13:12:40;101639.92;;;17.53;58.78